createdAt,value
2023-12-28T00:00:30.229Z,95347.91
2023-12-28T00:02:58.041Z,95341.84
2023-12-28T00:05:25.562Z,95343.50
2023-12-28T00:07:59.189Z,95342.66
2023-12-28T00:10:28.724Z,95348.06
2023-12-28T00:12:56.325Z,95349.69
2023-12-28T00:15:24.021Z,95344.31
2023-12-28T00:17:51.600Z,95341.00
2023-12-28T00:20:19.183Z,95342.81
2023-12-28T00:22:46.725Z,95341.00
2023-12-28T00:25:14.188Z,95345.44
2023-12-28T00:27:43.058Z,95339.38
2023-12-28T00:30:11.398Z,95337.59
2023-12-28T00:32:39.005Z,95328.09
2023-12-28T00:35:06.601Z,95328.94
2023-12-28T00:37:34.168Z,95328.09
2023-12-28T00:40:01.811Z,95322.88
2023-12-28T00:42:29.422Z,95328.09
2023-12-28T00:44:58.280Z,95326.47
2023-12-28T00:47:25.806Z,95325.66
2023-12-28T00:49:53.357Z,95332.50
2023-12-28T00:52:20.983Z,95338.56
2023-12-28T00:54:48.527Z,95346.41
2023-12-28T00:57:16.108Z,95334.31
2023-12-28T00:59:44.769Z,95340.34
2023-12-28T01:02:13.556Z,95337.72
2023-12-28T01:04:41.088Z,95336.94
2023-12-28T01:07:08.902Z,95341.16
2023-12-28T01:09:36.498Z,95336.94
2023-12-28T01:12:04.115Z,95336.94
2023-12-28T01:14:31.621Z,95343.94
2023-12-28T01:16:59.107Z,95349.31
2023-12-28T01:19:28.037Z,95354.41
2023-12-28T01:21:55.579Z,95359.63
2023-12-28T01:24:23.372Z,95359.63
2023-12-28T01:26:50.973Z,95363.19
2023-12-28T01:29:18.472Z,95365.81
2023-12-28T01:31:45.983Z,95376.13
2023-12-28T01:34:14.302Z,95379.69
2023-12-28T01:36:45.453Z,95377.91
2023-12-28T01:39:13.858Z,95386.59
2023-12-28T01:41:41.348Z,95378.75
2023-12-28T01:44:08.909Z,95376.94
2023-12-28T01:46:36.525Z,95385.75
2023-12-28T01:49:04.476Z,95377.91
2023-12-28T01:51:32.815Z,95377.91
2023-12-28T01:54:02.090Z,95389.19
2023-12-28T01:56:29.722Z,95389.19
2023-12-28T01:58:57.201Z,95384.09
2023-12-28T02:01:27.291Z,95377.91
2023-12-28T02:03:56.820Z,95376.13
2023-12-28T02:06:25.425Z,95378.75
2023-12-28T02:08:53.082Z,95372.84
2023-12-28T02:11:22.189Z,95371.84
2023-12-28T02:13:50.054Z,95382.31
2023-12-28T02:16:19.353Z,95386.72
2023-12-28T02:18:50.007Z,95379.69
2023-12-28T02:21:18.181Z,95377.25
2023-12-28T02:23:48.321Z,95381.47
2023-12-28T02:26:17.213Z,95380.69
2023-12-28T02:28:44.968Z,95387.69
2023-12-28T02:31:16.562Z,95383.28
2023-12-28T02:33:49.245Z,95383.28
2023-12-28T02:36:19.503Z,95375.47
2023-12-28T02:38:48.305Z,95371.19
2023-12-28T02:41:17.728Z,95378.06
2023-12-28T02:43:45.307Z,95379.84
2023-12-28T02:46:12.866Z,95380.81
2023-12-28T02:48:40.912Z,95384.25
2023-12-28T02:51:08.498Z,95388.66
2023-12-28T02:53:36.000Z,95383.41
2023-12-28T02:56:03.468Z,95385.09
2023-12-28T02:58:32.283Z,95380.81
2023-12-28T03:00:59.844Z,95390.44
2023-12-28T03:03:27.649Z,95390.44
2023-12-28T03:05:55.306Z,95387.03
2023-12-28T03:08:22.832Z,95384.41
2023-12-28T03:10:50.312Z,95386.03
2023-12-28T03:13:17.798Z,95384.41
2023-12-28T03:15:46.651Z,95381.78
2023-12-28T03:18:14.301Z,95383.56
2023-12-28T03:20:41.877Z,95381.78
2023-12-28T03:23:09.458Z,95388.81
2023-12-28T03:25:37.117Z,95392.38
2023-12-28T03:28:04.821Z,95378.34
2023-12-28T03:30:32.449Z,95381.78
2023-12-28T03:33:01.408Z,95388.66
2023-12-28T03:35:28.960Z,95382.59
2023-12-28T03:37:56.721Z,95385.22
2023-12-28T03:40:24.502Z,95381.78
2023-12-28T03:42:52.099Z,95380.97
2023-12-28T03:45:19.700Z,95386.19
2023-12-28T03:47:47.304Z,95380.97
2023-12-28T03:50:16.591Z,95383.56
2023-12-28T03:52:44.301Z,95382.75
2023-12-28T03:55:11.852Z,95380.97
2023-12-28T03:57:40.098Z,95381.78
2023-12-28T04:00:08.510Z,95380.13
2023-12-28T04:02:36.040Z,95382.75
2023-12-28T04:05:03.735Z,95395.81
2023-12-28T04:07:32.606Z,95395.81
2023-12-28T04:10:00.385Z,95401.03
2023-12-28T04:12:29.362Z,95401.03
2023-12-28T04:14:56.921Z,95399.25
2023-12-28T04:17:24.443Z,95407.25
2023-12-28T04:19:52.107Z,95402.81
2023-12-28T04:22:19.700Z,95406.28
2023-12-28T04:24:48.546Z,95399.41
2023-12-28T04:27:16.173Z,95402.03
2023-12-28T04:29:43.693Z,95404.63
2023-12-28T04:32:11.164Z,95402.97
2023-12-28T04:34:38.890Z,95401.19
2023-12-28T04:37:06.384Z,95394.31
2023-12-28T04:39:33.965Z,95402.97
2023-12-28T04:42:03.084Z,95402.16
2023-12-28T04:44:30.562Z,95400.38
2023-12-28T04:46:58.069Z,95399.53
2023-12-28T04:49:25.710Z,95394.31
2023-12-28T04:51:53.309Z,95398.72
2023-12-28T04:54:20.891Z,95404.75
2023-12-28T04:56:48.459Z,95405.75
2023-12-28T04:59:17.304Z,95406.53
2023-12-28T05:01:44.872Z,95404.75
2023-12-28T05:04:17.198Z,95408.22
2023-12-28T05:06:45.508Z,95403.13
2023-12-28T05:09:13.085Z,95406.53
2023-12-28T05:11:40.561Z,95400.38
2023-12-28T05:14:10.655Z,95410.81
2023-12-28T05:16:40.147Z,95416.03
2023-12-28T05:19:07.764Z,95415.22
2023-12-28T05:21:35.326Z,95421.28
2023-12-28T05:24:02.926Z,95414.25
2023-12-28T05:26:30.413Z,95411.66
2023-12-28T05:28:57.923Z,95416.72
2023-12-28T05:31:25.671Z,95419.50
2023-12-28T05:33:54.743Z,95430.78
2023-12-28T05:36:22.289Z,95425.53
2023-12-28T05:38:49.813Z,95429.94
2023-12-28T05:41:17.347Z,95428.16
2023-12-28T05:43:44.837Z,95427.31
2023-12-28T05:46:12.397Z,95421.13
2023-12-28T05:48:40.018Z,95424.72
2023-12-28T05:51:09.036Z,95422.09
2023-12-28T05:53:36.518Z,95422.94
2023-12-28T05:56:05.084Z,95420.44
2023-12-28T05:58:32.629Z,95423.06
2023-12-28T06:01:00.454Z,95424.72
2023-12-28T06:03:29.478Z,95429.94
2023-12-28T06:05:57.686Z,95424.03
2023-12-28T06:08:28.158Z,95433.50
2023-12-28T06:10:55.899Z,95425.66
2023-12-28T06:13:23.451Z,95427.44
2023-12-28T06:15:51.070Z,95425.81
2023-12-28T06:18:18.790Z,95424.03
2023-12-28T06:20:46.544Z,95428.28
2023-12-28T06:23:14.029Z,95428.44
2023-12-28T06:25:42.864Z,95424.84
2023-12-28T06:28:10.511Z,95427.59
2023-12-28T06:30:38.131Z,95425.00
2023-12-28T06:33:06.053Z,95420.59
2023-12-28T06:35:33.789Z,95431.88
2023-12-28T06:38:01.528Z,95425.00
2023-12-28T06:40:29.127Z,95433.66
2023-12-28T06:42:57.993Z,95432.84
2023-12-28T06:45:29.103Z,95435.44
2023-12-28T06:47:57.216Z,95435.44
2023-12-28T06:50:25.075Z,95429.38
2023-12-28T06:52:52.629Z,95437.22
2023-12-28T06:55:20.110Z,95431.03
2023-12-28T06:57:47.661Z,95429.38
2023-12-28T07:00:17.044Z,95432.00
2023-12-28T07:02:44.594Z,95429.38
2023-12-28T07:05:13.749Z,95433.81
2023-12-28T07:07:41.265Z,95429.38
2023-12-28T07:10:09.210Z,95437.22
2023-12-28T07:12:36.742Z,95433.66
2023-12-28T07:15:04.788Z,95432.00
2023-12-28T07:17:33.686Z,95437.22
2023-12-28T07:20:01.306Z,95432.00
2023-12-28T07:22:29.406Z,95430.22
2023-12-28T07:24:56.946Z,95429.38
2023-12-28T07:27:24.503Z,95425.97
2023-12-28T07:29:52.052Z,95426.78
2023-12-28T07:32:21.055Z,95424.16
2023-12-28T07:34:49.914Z,95421.53
2023-12-28T07:37:17.434Z,95430.22
2023-12-28T07:39:45.136Z,95431.19
2023-12-28T07:42:12.868Z,95432.97
2023-12-28T07:44:40.654Z,95432.97
2023-12-28T07:47:09.925Z,95422.53
2023-12-28T07:49:38.020Z,95427.75
2023-12-28T07:52:07.330Z,95436.56
2023-12-28T07:54:34.933Z,95439.16
2023-12-28T07:57:02.491Z,95437.38
2023-12-28T07:59:30.014Z,95448.66
2023-12-28T08:01:57.494Z,95434.94
2023-12-28T08:04:25.278Z,95436.56
2023-12-28T08:06:52.840Z,95447.00
2023-12-28T08:09:21.728Z,95442.59
2023-12-28T08:11:49.236Z,95455.66
2023-12-28T08:14:16.753Z,95460.06
2023-12-28T08:16:44.229Z,95461.06
2023-12-28T08:19:11.862Z,95468.72
2023-12-28T08:21:39.418Z,95461.06
2023-12-28T08:24:07.322Z,95459.28
2023-12-28T08:26:36.152Z,95462.84
2023-12-28T08:29:04.068Z,95458.28
2023-12-28T08:31:31.838Z,95465.28
2023-12-28T08:33:59.656Z,95462.84
2023-12-28T08:36:27.314Z,95468.88
2023-12-28T08:38:54.819Z,95474.94
2023-12-28T08:41:22.645Z,95473.97
2023-12-28T08:43:51.509Z,95472.47
2023-12-28T08:46:18.967Z,95474.13
2023-12-28T08:48:46.576Z,95470.50
2023-12-28T08:51:15.658Z,95467.91
2023-12-28T08:53:43.461Z,95468.06
2023-12-28T08:56:21.681Z,95475.75
2023-12-28T08:58:49.648Z,95470.50
2023-12-28T09:01:22.840Z,95470.50
2023-12-28T09:03:50.894Z,95470.50
2023-12-28T09:06:19.033Z,95475.75
2023-12-28T09:08:48.460Z,95469.84
2023-12-28T09:11:16.022Z,95482.78
2023-12-28T09:13:43.686Z,95481.94
2023-12-28T09:16:12.060Z,95480.97
2023-12-28T09:18:41.650Z,95480.97
2023-12-28T09:21:09.676Z,95479.19
2023-12-28T09:23:37.536Z,95473.13
2023-12-28T09:26:05.693Z,95482.78
2023-12-28T09:28:33.209Z,95486.19
2023-12-28T09:31:00.732Z,95480.97
2023-12-28T09:33:28.358Z,95474.13
2023-12-28T09:35:57.266Z,95474.13
2023-12-28T09:38:24.921Z,95467.09
2023-12-28T09:40:54.368Z,95469.72
2023-12-28T09:43:24.008Z,95463.66
2023-12-28T09:45:51.708Z,95458.44
2023-12-28T09:48:20.261Z,95460.22
2023-12-28T09:50:48.085Z,95462.00
2023-12-28T09:53:16.948Z,95450.59
2023-12-28T09:55:44.782Z,95447.16
2023-12-28T09:58:16.136Z,95438.50
2023-12-28T10:00:46.044Z,95443.72
2023-12-28T10:03:14.314Z,95451.56
2023-12-28T10:05:42.722Z,95448.09
2023-12-28T10:08:10.259Z,95441.09
2023-12-28T10:10:39.096Z,95445.50
2023-12-28T10:13:08.100Z,95440.28
2023-12-28T10:15:35.936Z,95443.03
2023-12-28T10:18:03.967Z,95447.31
2023-12-28T10:20:31.781Z,95447.31
2023-12-28T10:23:00.364Z,95449.91
2023-12-28T10:25:28.013Z,95451.72
2023-12-28T10:27:56.980Z,95448.09
2023-12-28T10:30:24.621Z,95456.94
2023-12-28T10:32:53.176Z,95444.69
2023-12-28T10:35:21.156Z,95439.47
2023-12-28T10:37:52.213Z,95433.25
2023-12-28T10:40:21.107Z,95426.41
2023-12-28T10:42:52.441Z,95417.59
2023-12-28T10:45:24.357Z,95417.59
2023-12-28T10:47:56.003Z,95420.34
2023-12-28T10:50:24.997Z,95419.53
2023-12-28T10:52:55.937Z,95418.41
2023-12-28T10:55:31.986Z,95427.22
2023-12-28T10:58:01.778Z,95415.97
2023-12-28T11:00:33.313Z,95419.38
2023-12-28T11:03:04.557Z,95414.16
2023-12-28T11:05:32.990Z,95415.13
2023-12-28T11:08:01.641Z,95417.59
2023-12-28T11:10:30.740Z,95406.47
2023-12-28T11:12:59.495Z,95410.72
2023-12-28T11:15:28.094Z,95407.28
2023-12-28T11:17:57.058Z,95402.91
2023-12-28T11:20:24.700Z,95405.50
2023-12-28T11:22:53.102Z,95391.63
2023-12-28T11:25:20.849Z,95398.63
2023-12-28T11:27:48.756Z,95394.22
2023-12-28T11:30:16.707Z,95388.16
2023-12-28T11:32:45.225Z,95388.16
2023-12-28T11:35:15.856Z,95396.00
2023-12-28T11:37:45.803Z,95395.19
2023-12-28T11:40:14.972Z,95391.78
2023-12-28T11:42:49.709Z,95380.50
2023-12-28T11:45:18.671Z,95377.72
2023-12-28T11:47:46.479Z,95382.13
2023-12-28T11:50:15.865Z,95389.97
2023-12-28T11:52:45.408Z,95373.47
2023-12-28T11:55:13.255Z,95385.72
2023-12-28T11:57:40.806Z,95375.25
2023-12-28T12:00:09.687Z,95377.88
2023-12-28T12:02:37.186Z,95378.72
2023-12-28T12:05:05.038Z,95374.44
2023-12-28T12:07:33.862Z,95375.25
2023-12-28T12:10:02.189Z,95371.81
2023-12-28T12:12:29.953Z,95377.88
2023-12-28T12:14:58.352Z,95369.22
2023-12-28T12:17:26.323Z,95371.00
2023-12-28T12:19:56.722Z,95372.66
2023-12-28T12:22:27.092Z,95366.44
2023-12-28T12:24:58.550Z,95363.03
2023-12-28T12:27:26.199Z,95358.59
2023-12-28T12:29:53.807Z,95355.19
2023-12-28T12:32:21.470Z,95356.16
2023-12-28T12:34:49.532Z,95351.75
2023-12-28T12:37:17.057Z,95355.19
2023-12-28T12:39:45.195Z,95350.94
2023-12-28T12:42:15.719Z,95349.13
2023-12-28T12:44:43.239Z,95349.13
2023-12-28T12:47:10.937Z,95349.13
2023-12-28T12:49:39.166Z,95349.97
2023-12-28T12:52:09.410Z,95346.53
2023-12-28T12:54:37.062Z,95349.13
2023-12-28T12:57:04.877Z,95349.13
2023-12-28T12:59:33.749Z,95343.09
2023-12-28T13:02:01.344Z,95343.09
2023-12-28T13:04:29.082Z,95343.09
2023-12-28T13:06:56.687Z,95349.28
2023-12-28T13:09:24.267Z,95349.13
2023-12-28T13:11:53.127Z,95348.31
2023-12-28T13:14:21.605Z,95339.66
2023-12-28T13:16:58.231Z,95329.19
2023-12-28T13:19:26.445Z,95338.69
2023-12-28T13:21:54.254Z,95346.69
2023-12-28T13:24:21.902Z,95348.47
2023-12-28T13:26:49.524Z,95341.47
2023-12-28T13:29:17.017Z,95345.84
2023-12-28T13:31:45.972Z,95345.84
2023-12-28T13:34:14.977Z,95350.25
2023-12-28T13:36:42.498Z,95357.13
2023-12-28T13:39:12.338Z,95353.69
2023-12-28T13:41:39.824Z,95345.03
2023-12-28T13:44:11.260Z,95345.84
2023-12-28T13:46:38.775Z,95348.47
2023-12-28T13:49:07.913Z,95345.03
2023-12-28T13:51:36.966Z,95352.88
2023-12-28T13:54:06.450Z,95349.28
2023-12-28T13:56:34.395Z,95342.41
2023-12-28T13:59:01.884Z,95345.97
2023-12-28T14:01:29.442Z,95345.03
2023-12-28T14:03:57.590Z,95347.63
2023-12-28T14:06:25.341Z,95345.03
2023-12-28T14:08:54.212Z,95348.47
2023-12-28T14:11:21.752Z,95341.59
2023-12-28T14:13:51.023Z,95344.19
2023-12-28T14:16:18.527Z,95351.09
2023-12-28T14:18:46.116Z,95347.63
2023-12-28T14:21:14.572Z,95351.09
2023-12-28T14:23:42.473Z,95348.47
2023-12-28T14:26:14.226Z,95345.03
2023-12-28T14:28:42.704Z,95348.47
2023-12-28T14:31:10.978Z,95344.19
2023-12-28T14:33:40.175Z,95348.47
2023-12-28T14:36:12.661Z,95342.41
2023-12-28T14:38:40.164Z,95345.84
2023-12-28T14:41:07.625Z,95345.84
2023-12-28T14:43:36.435Z,95346.69
2023-12-28T14:46:05.984Z,95349.41
2023-12-28T14:48:33.795Z,95351.91
2023-12-28T14:51:01.461Z,95346.81
2023-12-28T14:53:28.963Z,95350.25
2023-12-28T14:55:56.467Z,95343.25
2023-12-28T14:58:23.969Z,95340.75
2023-12-28T15:00:53.000Z,95338.97
2023-12-28T15:03:20.546Z,95348.59
2023-12-28T15:05:48.174Z,95348.59
2023-12-28T15:08:15.691Z,95348.59
2023-12-28T15:10:43.434Z,95355.63
2023-12-28T15:13:11.284Z,95366.88
2023-12-28T15:15:39.187Z,95355.63
2023-12-28T15:18:09.043Z,95353.03
2023-12-28T15:20:37.140Z,95367.88
2023-12-28T15:23:05.236Z,95355.63
2023-12-28T15:25:32.694Z,95363.47
2023-12-28T15:28:00.554Z,95368.81
2023-12-28T15:30:28.384Z,95367.03
2023-12-28T15:32:56.098Z,95371.31
2023-12-28T15:35:24.992Z,95363.59
2023-12-28T15:37:52.506Z,95377.47
2023-12-28T15:40:20.131Z,95371.44
2023-12-28T15:42:49.484Z,95361.81
2023-12-28T15:45:17.248Z,95363.59
2023-12-28T15:47:44.760Z,95367.03
2023-12-28T15:50:12.552Z,95360.97
2023-12-28T15:52:41.504Z,95364.41
2023-12-28T15:55:09.626Z,95360.97
2023-12-28T15:57:37.176Z,95362.63
2023-12-28T16:00:07.498Z,95361.81
2023-12-28T16:02:35.931Z,95349.72
2023-12-28T16:05:03.632Z,95360.97
2023-12-28T16:07:31.167Z,95362.63
2023-12-28T16:09:59.981Z,95352.34
2023-12-28T16:12:27.514Z,95349.72
2023-12-28T16:14:55.313Z,95350.53
2023-12-28T16:17:23.268Z,95349.72
2023-12-28T16:19:51.218Z,95347.91
2023-12-28T16:22:19.084Z,95347.91
2023-12-28T16:24:46.618Z,95353.16
2023-12-28T16:27:15.475Z,95351.34
2023-12-28T16:29:43.193Z,95353.16
2023-12-28T16:32:10.674Z,95366.09
2023-12-28T16:34:38.416Z,95364.41
2023-12-28T16:37:06.172Z,95351.34
2023-12-28T16:39:33.733Z,95358.38
2023-12-28T16:42:01.218Z,95359.19
2023-12-28T16:44:30.093Z,95361.81
2023-12-28T16:46:57.924Z,95354.97
2023-12-28T16:49:25.652Z,95350.53
2023-12-28T16:51:53.502Z,95349.72
2023-12-28T16:54:21.174Z,95354.97
2023-12-28T16:56:48.703Z,95349.72
2023-12-28T16:59:16.636Z,95357.56
2023-12-28T17:01:45.924Z,95350.69
2023-12-28T17:04:13.582Z,95341.06
2023-12-28T17:06:41.212Z,95348.06
2023-12-28T17:09:10.687Z,95338.44
2023-12-28T17:11:38.504Z,95348.91
2023-12-28T17:14:06.234Z,95341.91
2023-12-28T17:16:34.159Z,95344.63
2023-12-28T17:19:03.506Z,95344.63
2023-12-28T17:21:34.991Z,95340.25
2023-12-28T17:24:02.611Z,95339.41
2023-12-28T17:26:30.991Z,95348.06
2023-12-28T17:29:01.133Z,95349.03
2023-12-28T17:31:30.191Z,95339.56
2023-12-28T17:33:58.366Z,95338.56
2023-12-28T17:36:30.844Z,95333.34
2023-12-28T17:39:02.865Z,95332.41
2023-12-28T17:41:31.774Z,95327.19
2023-12-28T17:44:01.590Z,95331.56
2023-12-28T17:46:33.565Z,95338.56
2023-12-28T17:49:02.313Z,95344.63
2023-12-28T17:51:32.286Z,95349.03
2023-12-28T17:54:00.052Z,95336.78
2023-12-28T17:56:27.615Z,95355.09
2023-12-28T17:58:55.081Z,95349.03
2023-12-28T18:01:22.641Z,95344.63
2023-12-28T18:03:50.248Z,95339.41
2023-12-28T18:06:17.936Z,95337.63
2023-12-28T18:08:46.783Z,95342.03
2023-12-28T18:11:14.575Z,95330.75
2023-12-28T18:13:42.129Z,95328.13
2023-12-28T18:16:11.134Z,95318.66
2023-12-28T18:18:39.044Z,95315.06
2023-12-28T18:21:07.677Z,95318.50
2023-12-28T18:23:35.196Z,95325.53
2023-12-28T18:26:04.072Z,95335.97
2023-12-28T18:28:32.735Z,95333.34
2023-12-28T18:31:00.384Z,95321.13
2023-12-28T18:33:28.108Z,95324.72
2023-12-28T18:35:56.956Z,95323.72
2023-12-28T18:38:25.407Z,95329.94
2023-12-28T18:40:52.934Z,95316.88
2023-12-28T18:43:21.805Z,95317.69
2023-12-28T18:45:49.993Z,95317.00
2023-12-28T18:48:18.046Z,95310.00
2023-12-28T18:50:45.741Z,95310.00
2023-12-28T18:53:13.349Z,95302.16
2023-12-28T18:55:41.745Z,95299.56
2023-12-28T18:58:09.700Z,95303.94
2023-12-28T19:00:39.173Z,95307.38
2023-12-28T19:03:07.008Z,95306.56
2023-12-28T19:05:34.707Z,95311.78
2023-12-28T19:08:02.764Z,95310.00
2023-12-28T19:10:30.404Z,95299.72
2023-12-28T19:12:58.021Z,95301.34
2023-12-28T19:15:25.544Z,95309.16
2023-12-28T19:17:54.716Z,95291.88
2023-12-28T19:20:22.253Z,95292.69
2023-12-28T19:22:49.728Z,95296.13
2023-12-28T19:25:18.779Z,95293.66
2023-12-28T19:27:46.264Z,95292.69
2023-12-28T19:30:14.378Z,95289.25
2023-12-28T19:32:42.030Z,95285.81
2023-12-28T19:35:13.073Z,95283.22
2023-12-28T19:37:40.642Z,95289.25
2023-12-28T19:40:08.815Z,95292.69
2023-12-28T19:42:36.404Z,95290.09
2023-12-28T19:45:04.317Z,95290.09
2023-12-28T19:47:31.862Z,95293.66
2023-12-28T19:49:59.397Z,95296.13
2023-12-28T19:52:28.270Z,95284.88
2023-12-28T19:54:55.905Z,95292.69
2023-12-28T19:57:23.912Z,95286.66
2023-12-28T19:59:52.293Z,95290.09
2023-12-28T20:02:22.195Z,95284.88
2023-12-28T20:04:49.703Z,95279.66
2023-12-28T20:07:17.336Z,95289.25
2023-12-28T20:09:46.243Z,95289.25
2023-12-28T20:12:13.780Z,95290.09
2023-12-28T20:14:41.318Z,95291.88
2023-12-28T20:17:08.830Z,95288.44
2023-12-28T20:19:36.989Z,95293.66
2023-12-28T20:22:04.840Z,95292.81
2023-12-28T20:24:32.400Z,95297.09
2023-12-28T20:27:01.247Z,95296.28
2023-12-28T20:29:28.778Z,95297.09
2023-12-28T20:31:56.259Z,95297.09
2023-12-28T20:34:24.583Z,95296.28
2023-12-28T20:36:53.752Z,95290.22
2023-12-28T20:39:21.521Z,95291.03
2023-12-28T20:41:49.026Z,95285.97
2023-12-28T20:44:20.471Z,95296.28
2023-12-28T20:46:48.253Z,95293.66
2023-12-28T20:49:16.385Z,95302.47
2023-12-28T20:51:43.987Z,95302.47
2023-12-28T20:54:11.475Z,95304.25
2023-12-28T20:56:38.972Z,95310.31
2023-12-28T20:59:06.448Z,95310.31
2023-12-28T21:01:35.622Z,95311.28
2023-12-28T21:04:03.265Z,95320.75
2023-12-28T21:06:30.843Z,95315.53
2023-12-28T21:08:58.357Z,95316.50
2023-12-28T21:11:25.889Z,95308.66
2023-12-28T21:14:03.609Z,95301.78
2023-12-28T21:16:31.278Z,95306.03
2023-12-28T21:19:00.278Z,95308.66
2023-12-28T21:21:28.022Z,95306.03
2023-12-28T21:23:55.622Z,95300.00
2023-12-28T21:26:23.106Z,95316.50
2023-12-28T21:28:50.631Z,95310.44
2023-12-28T21:31:18.281Z,95315.53
2023-12-28T21:33:45.988Z,95310.44
2023-12-28T21:36:14.893Z,95309.50
2023-12-28T21:38:42.372Z,95317.31
2023-12-28T21:41:09.845Z,95316.50
2023-12-28T21:43:39.270Z,95318.28
2023-12-28T21:46:07.113Z,95327.78
2023-12-28T21:48:35.962Z,95329.56
2023-12-28T21:51:03.585Z,95326.13
2023-12-28T21:53:32.429Z,95327.09
2023-12-28T21:55:59.993Z,95328.72
2023-12-28T21:58:27.773Z,95327.91
2023-12-28T22:00:56.249Z,95325.28
2023-12-28T22:03:23.845Z,95326.13
2023-12-28T22:05:51.353Z,95326.13
2023-12-28T22:08:18.864Z,95329.56
2023-12-28T22:10:47.762Z,95320.06
2023-12-28T22:13:15.317Z,95333.94
2023-12-28T22:15:42.931Z,95338.34
2023-12-28T22:18:10.588Z,95335.72
2023-12-28T22:20:38.132Z,95335.72
2023-12-28T22:23:05.791Z,95336.72
2023-12-28T22:25:33.313Z,95334.09
2023-12-28T22:28:02.530Z,95349.63
2023-12-28T22:30:32.690Z,95345.38
2023-12-28T22:33:00.712Z,95340.16
2023-12-28T22:35:28.236Z,95340.16
2023-12-28T22:37:55.733Z,95336.72
2023-12-28T22:40:23.233Z,95338.50
2023-12-28T22:42:50.751Z,95347.16
2023-12-28T22:45:19.641Z,95345.50
2023-12-28T22:47:47.162Z,95348.94
2023-12-28T22:50:14.734Z,95359.41
2023-12-28T22:52:42.420Z,95356.78
2023-12-28T22:55:10.249Z,95360.22
2023-12-28T22:57:37.826Z,95364.63
2023-12-28T23:00:10.491Z,95364.63
2023-12-28T23:02:39.322Z,95358.56
2023-12-28T23:05:07.219Z,95366.41
2023-12-28T23:07:34.767Z,95361.19
2023-12-28T23:10:02.275Z,95363.78
2023-12-28T23:12:30.155Z,95353.34
2023-12-28T23:14:58.251Z,95349.94
2023-12-28T23:17:26.016Z,95351.72
2023-12-28T23:19:54.992Z,95352.53
2023-12-28T23:22:22.618Z,95349.09
2023-12-28T23:24:50.147Z,95343.88
2023-12-28T23:27:17.803Z,95341.25
2023-12-28T23:29:45.306Z,95332.59
2023-12-28T23:32:12.789Z,95346.50
2023-12-28T23:34:41.035Z,95334.38
2023-12-28T23:37:10.156Z,95332.59
2023-12-28T23:39:37.769Z,95337.81
2023-12-28T23:42:06.152Z,95321.31
2023-12-28T23:44:34.008Z,95326.44
2023-12-28T23:47:01.658Z,95329.03
2023-12-28T23:49:34.604Z,95321.31
2023-12-28T23:52:02.320Z,95323.94
2023-12-28T23:54:31.637Z,95318.72
2023-12-28T23:57:00.918Z,95326.53
2023-12-28T23:59:28.396Z,95331.66
